Time;durP1;ratioP1;P1;durP2;ratioP2;P2;SDS_P1;SDS_P2;PMS_P1;PMS_P2;Temp;Humidity;BMP_temperature;BMP_pressure;BME280_temperature;BME280_humidity;BME280_pressure;Samples;Min_cycle;Max_cycle;Signal;HPM_P1;HPM_P2
2023/09/30 00:02:24;;;;;;;15.98;7.03;;;;;;;12.95;100.00;101831.34;5067285;28;20480;-84
2023/09/30 00:04:52;;;;;;;13.93;6.65;;;;;;;12.88;100.00;101831.09;5068485;28;20111;-84
2023/09/30 00:07:20;;;;;;;14.48;6.75;;;;;;;12.75;100.00;101814.00;5067553;28;20053;-84
2023/09/30 00:09:47;;;;;;;17.77;7.40;;;;;;;12.94;100.00;101848.91;5068065;28;20049;-84
2023/09/30 00:12:13;;;;;;;14.02;6.50;;;;;;;12.79;100.00;101829.31;5070556;28;20052;-85
2023/09/30 00:14:43;;;;;;;14.70;7.38;;;;;;;12.74;100.00;101839.44;5069511;28;20045;-84
2023/09/30 00:17:12;;;;;;;16.33;7.47;;;;;;;12.80;100.00;101862.47;5068049;28;20106;-84
2023/09/30 00:19:39;;;;;;;18.50;7.40;;;;;;;12.77;100.00;101851.44;5069002;28;20055;-84
2023/09/30 00:22:08;;;;;;;15.40;6.70;;;;;;;12.76;100.00;101850.59;5068071;28;20099;-84
2023/09/30 00:24:37;;;;;;;17.80;8.15;;;;;;;12.70;100.00;101847.72;5067013;28;20049;-84
2023/09/30 00:27:03;;;;;;;18.30;6.85;;;;;;;12.89;100.00;101859.03;5067731;28;20126;-84
2023/09/30 00:29:32;;;;;;;17.67;7.07;;;;;;;12.85;100.00;101843.69;5067177;28;20049;-84
2023/09/30 00:31:59;;;;;;;17.35;7.05;;;;;;;12.86;100.00;101834.81;5067905;28;20049;-84
2023/09/30 00:34:30;;;;;;;13.45;6.57;;;;;;;12.84;100.00;101823.63;5068004;28;20075;-84
2023/09/30 00:36:56;;;;;;;15.20;6.97;;;;;;;12.99;100.00;101834.53;5067530;28;20049;-84
2023/09/30 00:39:26;;;;;;;16.30;6.55;;;;;;;13.04;100.00;101837.56;5067092;28;20180;-84
2023/09/30 00:41:59;;;;;;;15.65;6.60;;;;;;;12.99;100.00;101829.28;5065461;28;20453;-84
2023/09/30 00:44:26;;;;;;;;;;;;;;;13.06;100.00;101840.88;5061042;28;20060;-83
2023/09/30 00:46:54;;;;;;;15.93;6.25;;;;;;;13.09;100.00;101845.84;5058128;28;19947;-84
2023/09/30 00:49:23;;;;;;;18.40;6.18;;;;;;;13.12;100.00;101856.91;5064990;28;20056;-85
2023/09/30 00:51:56;;;;;;;16.83;7.13;;;;;;;13.19;100.00;101860.66;5063784;28;20449;-85
2023/09/30 00:54:35;;;;;;;17.92;7.32;;;;;;;13.29;100.00;101861.44;5066468;28;20064;-85
2023/09/30 00:57:24;;;;;;;17.73;6.65;;;;;;;13.21;100.00;101861.34;5065783;28;20072;-84
2023/09/30 00:59:55;;;;;;;13.40;6.43;;;;;;;13.05;100.00;101853.19;5052971;28;20049;-85
2023/09/30 01:02:44;;;;;;;15.32;6.32;;;;;;;12.99;100.00;101855.53;5065987;28;20053;-85
2023/09/30 01:05:13;;;;;;;16.50;6.10;;;;;;;12.88;100.00;101846.03;5058313;28;20049;-85
2023/09/30 01:07:40;;;;;;;18.35;6.45;;;;;;;12.85;100.00;101841.88;5067253;28;20045;-84
2023/09/30 01:10:09;;;;;;;17.88;6.35;;;;;;;12.91;100.00;101849.19;5060792;28;20068;-84
2023/09/30 01:12:37;;;;;;;15.13;6.32;;;;;;;12.85;100.00;101859.44;5062350;28;20049;-85
2023/09/30 01:15:06;;;;;;;15.60;6.28;;;;;;;12.79;100.00;101834.56;5067761;28;20053;-84
2023/09/30 01:17:33;;;;;;;16.95;6.30;;;;;;;12.76;100.00;101829.59;5067929;28;20064;-84
2023/09/30 01:19:59;;;;;;;16.40;6.97;;;;;;;12.84;100.00;101850.72;5067664;28;20103;-84
2023/09/30 01:22:30;;;;;;;19.17;6.68;;;;;;;12.76;100.00;101839.28;5067512;28;20053;-85
2023/09/30 01:24:57;;;;;;;16.13;7.25;;;;;;;12.64;100.00;101828.09;5067234;28;20045;-84
2023/09/30 01:27:23;;;;;;;16.65;6.28;;;;;;;12.62;100.00;101838.75;5067845;28;20049;-84
2023/09/30 01:29:50;;;;;;;15.00;6.32;;;;;;;12.57;100.00;101861.97;5067278;28;20045;-84
2023/09/30 01:32:17;;;;;;;16.17;6.43;;;;;;;12.69;100.00;101875.78;5069837;28;20132;-84
2023/09/30 01:34:44;;;;;;;16.50;6.03;;;;;;;12.76;100.00;101871.59;5062781;28;20053;-83
2023/09/30 01:37:10;;;;;;;12.75;6.30;;;;;;;12.59;100.00;101865.28;5065806;28;20056;-83
2023/09/30 01:39:39;;;;;;;22.70;6.32;;;;;;;12.54;100.00;101879.78;5062767;28;20057;-83
2023/09/30 01:42:05;;;;;;;12.98;6.15;;;;;;;12.66;100.00;101878.69;5060410;28;20049;-83
2023/09/30 01:44:32;;;;;;;16.92;6.05;;;;;;;12.70;100.00;101872.19;5064535;28;20067;-82
2023/09/30 01:46:59;;;;;;;12.13;6.25;;;;;;;12.61;100.00;101852.84;5064657;28;20045;-82
2023/09/30 01:49:26;;;;;;;13.07;5.97;;;;;;;12.54;100.00;101856.16;5066707;28;20426;-82
2023/09/30 01:51:52;;;;;;;17.95;6.18;;;;;;;12.47;100.00;101855.06;5066243;28;20088;-83
2023/09/30 01:54:19;;;;;;;15.20;5.82;;;;;;;12.48;100.00;101862.78;5065157;28;20049;-83
2023/09/30 01:56:47;;;;;;;13.20;6.50;;;;;;;12.43;100.00;101874.69;5066153;28;20049;-83
2023/09/30 01:59:14;;;;;;;15.57;6.50;;;;;;;12.49;100.00;101885.47;5065268;28;20049;-84
2023/09/30 02:01:40;;;;;;;18.05;6.85;;;;;;;12.38;100.00;101893.47;5060576;28;20081;-84
2023/09/30 02:04:07;;;;;;;15.18;6.40;;;;;;;12.27;100.00;101890.97;5062233;28;20044;-85
2023/09/30 02:06:34;;;;;;;16.13;6.93;;;;;;;12.21;100.00;101892.34;5063945;28;20057;-84
2023/09/30 02:09:01;;;;;;;18.60;6.95;;;;;;;12.27;100.00;101902.31;5045647;28;20049;-85
2023/09/30 02:11:28;;;;;;;12.52;7.13;;;;;;;12.29;100.00;101894.28;5049305;28;20084;-84
2023/09/30 02:13:56;;;;;;;15.10;6.70;;;;;;;12.16;100.00;101896.34;5059861;28;20076;-81
2023/09/30 02:16:24;;;;;;;14.60;6.85;;;;;;;12.06;100.00;101885.81;5068236;28;20075;-82
2023/09/30 02:18:51;;;;;;;17.70;6.80;;;;;;;11.99;100.00;101883.88;5065831;28;20053;-83
2023/09/30 02:21:18;;;;;;;15.25;7.95;;;;;;;12.07;100.00;101892.75;5065487;28;20049;-84
2023/09/30 02:23:47;;;;;;;17.58;7.03;;;;;;;12.08;100.00;101901.44;5063838;28;20076;-83
2023/09/30 02:26:14;;;;;;;15.98;7.05;;;;;;;12.06;100.00;101909.44;5063365;28;20055;-85
2023/09/30 02:28:41;;;;;;;18.58;8.63;;;;;;;12.08;100.00;101909.31;5064472;28;20463;-82
2023/09/30 02:31:09;;;;;;;18.23;7.65;;;;;;;12.05;100.00;101899.91;5065537;28;20048;-81
2023/09/30 02:33:37;;;;;;;19.65;8.13;;;;;;;12.15;100.00;101899.94;5064311;28;20072;-81
2023/09/30 02:36:05;;;;;;;14.77;7.55;;;;;;;12.09;100.00;101903.94;5063643;28;20063;-81
2023/09/30 02:38:32;;;;;;;12.35;7.22;;;;;;;12.06;100.00;101898.94;5064659;28;20103;-82
2023/09/30 02:40:58;;;;;;;16.00;8.55;;;;;;;12.07;100.00;101910.28;5065783;28;20454;-80
2023/09/30 02:43:25;;;;;;;12.57;7.35;;;;;;;12.06;100.00;101900.75;5084450;28;20052;-82
2023/09/30 02:45:52;;;;;;;17.25;7.90;;;;;;;11.94;100.00;101897.38;5085157;28;20056;-82
2023/09/30 02:48:20;;;;;;;17.15;7.90;;;;;;;11.93;100.00;101900.97;5074612;28;20513;-82
2023/09/30 02:50:47;;;;;;;20.52;7.88;;;;;;;12.03;100.00;101911.50;5065872;28;20065;-82
2023/09/30 02:53:16;;;;;;;17.58;8.32;;;;;;;12.06;100.00;101919.09;5067024;28;20087;-80
2023/09/30 02:55:43;;;;;;;17.05;8.30;;;;;;;11.94;100.00;101921.00;5065846;28;20245;-82
2023/09/30 02:58:10;;;;;;;15.32;8.25;;;;;;;11.90;100.00;101919.59;5064542;28;20045;-82
2023/09/30 03:00:37;;;;;;;18.02;8.02;;;;;;;11.87;100.00;101919.88;5064524;28;20083;-82
2023/09/30 03:03:05;;;;;;;19.00;8.75;;;;;;;11.90;100.00;101930.09;5063518;28;20053;-82
2023/09/30 03:05:33;;;;;;;17.40;8.57;;;;;;;11.95;100.00;101926.13;5063205;28;20080;-81
2023/09/30 03:08:00;;;;;;;18.33;9.15;;;;;;;11.89;100.00;101934.50;5062102;28;20051;-81
2023/09/30 03:10:27;;;;;;;19.60;8.35;;;;;;;11.90;100.00;101930.09;5063618;28;20052;-82
2023/09/30 03:12:54;;;;;;;15.25;8.70;;;;;;;11.93;100.00;101933.28;5063792;28;20080;-82
2023/09/30 03:15:21;;;;;;;17.13;8.43;;;;;;;11.91;100.00;101927.34;5063683;28;20192;-81
2023/09/30 03:17:48;;;;;;;16.73;8.63;;;;;;;11.83;100.00;101902.75;5063041;28;20049;-81
2023/09/30 03:20:19;;;;;;;20.80;8.40;;;;;;;11.97;100.00;101918.09;5062324;28;20045;-82
2023/09/30 03:22:48;;;;;;;18.58;8.90;;;;;;;11.96;100.00;101926.94;5063590;28;20045;-82
2023/09/30 03:25:17;;;;;;;15.23;8.38;;;;;;;11.91;100.00;101916.84;5064817;28;20049;-81
2023/09/30 03:27:47;;;;;;;15.68;8.52;;;;;;;12.02;100.00;101928.22;5064063;28;20075;-81
2023/09/30 03:30:15;;;;;;;17.73;8.88;;;;;;;11.95;100.00;101928.72;5064989;28;20083;-81
2023/09/30 03:32:42;;;;;;;25.63;9.40;;;;;;;11.81;100.00;101899.44;5067321;28;20057;-82
2023/09/30 03:35:10;;;;;;;17.17;9.35;;;;;;;11.90;100.00;101914.34;5068041;28;20109;-80
2023/09/30 03:37:38;;;;;;;19.17;9.73;;;;;;;11.80;100.00;101908.28;5067351;28;20311;-82
2023/09/30 03:40:13;;;;;;;22.02;9.45;;;;;;;11.90;100.00;101906.50;5068330;28;20148;-82
2023/09/30 03:42:42;;;;;;;19.20;9.15;;;;;;;11.71;100.00;101898.53;5070869;28;20067;-82
2023/09/30 03:45:10;;;;;;;15.77;8.98;;;;;;;11.57;100.00;101899.72;5071414;28;20056;-80
2023/09/30 03:47:37;;;;;;;22.15;9.50;;;;;;;11.51;100.00;101908.09;5070873;28;20048;-81
2023/09/30 03:50:05;;;;;;;18.52;10.98;;;;;;;11.51;100.00;101916.81;5071179;28;20095;-82
2023/09/30 03:52:33;;;;;;;18.50;9.30;;;;;;;11.35;100.00;101889.41;5072064;28;20044;-81
2023/09/30 03:55:05;;;;;;;23.15;9.65;;;;;;;11.49;100.00;101907.41;5075459;28;20052;-83
2023/09/30 03:57:33;;;;;;;20.00;9.55;;;;;;;11.47;100.00;101917.19;5061366;28;20473;-83
2023/09/30 04:00:00;;;;;;;18.17;9.95;;;;;;;11.53;100.00;101912.25;5068896;28;20080;-82
2023/09/30 04:02:27;;;;;;;25.02;10.32;;;;;;;11.59;100.00;101913.53;5066883;28;20045;-83
2023/09/30 04:04:55;;;;;;;18.27;10.15;;;;;;;11.64;100.00;101908.72;5068351;28;20073;-84
2023/09/30 04:07:27;;;;;;;21.95;10.48;;;;;;;11.63;100.00;101907.91;5063833;28;20084;-84
2023/09/30 04:09:55;;;;;;;19.10;9.98;;;;;;;11.65;100.00;101907.75;5069374;28;20276;-84
2023/09/30 04:12:23;;;;;;;18.75;10.50;;;;;;;11.63;100.00;101914.94;5070006;28;20040;-83
2023/09/30 04:14:51;;;;;;;18.88;10.20;;;;;;;11.63;100.00;101902.66;5065490;28;20055;-83
2023/09/30 04:17:18;;;;;;;15.55;10.32;;;;;;;11.59;100.00;101906.50;5069038;28;20394;-84
2023/09/30 04:19:45;;;;;;;18.17;10.27;;;;;;;11.62;100.00;101911.47;5070664;28;20472;-83
2023/09/30 04:22:12;;;;;;;20.73;10.35;;;;;;;11.59;100.00;101918.78;5061569;28;20427;-83
2023/09/30 04:24:39;;;;;;;21.25;10.98;;;;;;;11.61;100.00;101914.22;5070687;28;20103;-83
2023/09/30 04:27:07;;;;;;;22.98;9.77;;;;;;;11.58;100.00;101907.47;5069530;28;20049;-82
2023/09/30 04:29:34;;;;;;;20.65;9.90;;;;;;;11.58;100.00;101907.47;5071333;28;20072;-82
2023/09/30 04:32:02;;;;;;;22.15;11.57;;;;;;;11.51;100.00;101882.72;5069657;28;20055;-83
2023/09/30 04:34:29;;;;;;;24.38;10.68;;;;;;;11.46;100.00;101886.69;5068506;28;20072;-82
2023/09/30 04:36:56;;;;;;;20.17;10.60;;;;;;;11.56;100.00;101906.75;5058554;28;20080;-82
2023/09/30 04:39:23;;;;;;;20.83;10.23;;;;;;;11.57;100.00;101918.91;5066937;28;20065;-83
2023/09/30 04:41:49;;;;;;;21.17;11.50;;;;;;;11.56;100.00;101919.88;5066835;28;20049;-82
2023/09/30 04:44:16;;;;;;;20.25;11.18;;;;;;;11.57;100.00;101928.56;5067335;28;20049;-83
2023/09/30 04:46:45;;;;;;;24.63;10.93;;;;;;;11.51;100.00;101935.16;5058162;28;20045;-82
2023/09/30 04:49:15;;;;;;;22.58;11.18;;;;;;;11.52;100.00;101949.09;5068488;28;20483;-82
2023/09/30 04:51:42;;;;;;;25.65;11.75;;;;;;;11.46;100.00;101929.47;5069141;28;20045;-83
2023/09/30 04:54:09;;;;;;;19.17;10.77;;;;;;;11.50;100.00;101945.75;5069200;28;20075;-83
2023/09/30 04:56:36;;;;;;;25.25;10.85;;;;;;;11.39;100.00;101956.31;5069096;28;20051;-83
2023/09/30 04:59:04;;;;;;;22.42;11.05;;;;;;;11.25;100.00;101960.13;5069111;28;20052;-83
2023/09/30 05:01:31;;;;;;;21.75;11.02;;;;;;;11.25;100.00;101958.31;5068138;28;20053;-83
2023/09/30 05:04:01;;;;;;;18.02;10.02;;;;;;;11.05;100.00;101929.50;5068863;28;20044;-83
2023/09/30 05:10:15;;;;;;;23.02;11.23;;;;;;;10.89;100.00;101922.91;5059647;28;20059;-84
2023/09/30 05:16:35;;;;;;;;;;;;;;;;;;;;;
2023/09/30 05:19:23;;;;;;;22.48;11.05;;;;;;;11.03;100.00;101949.75;5046853;28;20069;-84
2023/09/30 05:21:57;;;;;;;21.70;11.35;;;;;;;10.97;100.00;101951.91;5054108;28;20065;-85
2023/09/30 05:29:36;;;;;;;25.48;11.43;;;;;;;10.95;100.00;101953.81;5051573;28;20057;-84
2023/09/30 05:32:09;;;;;;;24.70;11.95;;;;;;;10.95;100.00;101959.06;5045150;28;20049;-84
2023/09/30 05:34:51;;;;;;;;;;;;;;;11.06;100.00;101966.03;5046995;28;20068;-84
2023/09/30 05:51:46;;;;;;;22.20;10.98;;;;;;;11.22;100.00;101966.44;5064706;28;20044;-80
2023/09/30 05:57:33;;;;;;;;;;;;;;;;;;;;;
2023/09/30 06:04:04;;;;;;;;;;;;;;;;;;;;;
2023/09/30 06:06:41;;;;;;;21.77;10.83;;;;;;;11.51;100.00;101982.34;5005117;28;20060;-80
2023/09/30 06:09:42;;;;;;;19.63;10.70;;;;;;;11.61;100.00;101993.72;5075670;28;20301;-80
2023/09/30 06:21:58;;;;;;;19.90;10.20;;;;;;;12.10;100.00;101978.22;5064645;28;20060;-79
2023/09/30 06:25:17;;;;;;;19.83;9.90;;;;;;;12.36;100.00;101973.31;5032495;28;20515;-78
2023/09/30 06:28:07;;;;;;;22.02;10.35;;;;;;;12.93;100.00;101968.13;5000977;28;20045;-80
2023/09/30 06:57:30;;;;;;;14.48;7.68;;;;;;;15.99;93.76;101939.22;4994745;28;20073;-81
2023/09/30 06:59:57;;;;;;;12.43;7.82;;;;;;;16.72;92.08;101948.13;5028505;28;20077;-81
2023/09/30 07:02:24;;;;;;;13.10;8.25;;;;;;;17.37;89.40;101926.94;5057670;28;20132;-80
2023/09/30 07:04:50;;;;;;;16.48;8.93;;;;;;;17.12;87.73;101917.38;5058087;28;20514;-82
2023/09/30 07:07:17;;;;;;;16.60;8.65;;;;;;;17.99;86.11;101915.63;5062067;28;20469;-83
2023/09/30 07:09:44;;;;;;;18.15;9.00;;;;;;;17.96;84.69;101914.16;5062486;28;20117;-82
2023/09/30 07:12:11;;;;;;;13.48;8.30;;;;;;;18.49;83.41;101912.50;5062559;28;20053;-82
2023/09/30 07:14:39;;;;;;;15.80;9.55;;;;;;;18.63;82.46;101925.03;5061709;28;20052;-82
2023/09/30 07:17:06;;;;;;;14.10;9.27;;;;;;;18.29;82.24;101916.63;5061981;28;20112;-82
2023/09/30 07:19:33;;;;;;;16.00;9.38;;;;;;;18.07;84.43;101937.59;5061656;28;20084;-83
2023/09/30 07:21:59;;;;;;;12.98;8.80;;;;;;;18.07;84.54;101942.91;5061466;28;20049;-83
2023/09/30 07:24:26;;;;;;;11.95;9.00;;;;;;;17.75;83.96;101927.19;5062368;28;20045;-83
2023/09/30 07:26:53;;;;;;;12.40;9.18;;;;;;;18.08;85.04;101951.69;5061705;28;20128;-83
2023/09/30 07:29:19;;;;;;;14.63;9.73;;;;;;;17.42;84.88;101945.78;5062538;28;20045;-82
2023/09/30 07:31:47;;;;;;;13.95;9.27;;;;;;;17.36;86.59;101957.03;5061577;28;20187;-82
2023/09/30 07:34:14;;;;;;;14.40;10.25;;;;;;;18.12;85.03;101960.94;5061454;28;20509;-84
2023/09/30 07:36:40;;;;;;;12.70;9.50;;;;;;;18.66;84.25;101966.28;5061684;28;20053;-82
2023/09/30 07:39:07;;;;;;;16.40;9.80;;;;;;;18.60;84.29;101973.09;5062327;28;20049;-81
2023/09/30 07:41:36;;;;;;;13.30;10.82;;;;;;;18.86;82.64;101967.47;5061899;28;20132;-83
2023/09/30 07:44:04;;;;;;;12.07;9.85;;;;;;;19.02;81.60;101971.78;5061336;28;20045;-84
2023/09/30 07:46:31;;;;;;;16.25;10.38;;;;;;;19.76;80.78;101973.56;5061873;28;20198;-82
2023/09/30 07:49:00;;;;;;;15.50;9.93;;;;;;;20.36;77.95;101961.78;5061880;28;20095;-83
2023/09/30 07:51:26;;;;;;;14.35;11.15;;;;;;;20.17;77.25;101941.97;5062251;28;20463;-83
2023/09/30 07:53:53;;;;;;;13.63;10.82;;;;;;;20.44;77.35;101947.59;5068883;28;20049;-82
2023/09/30 07:56:19;;;;;;;13.75;10.48;;;;;;;20.31;76.77;101950.94;5062131;28;20080;-82
2023/09/30 07:58:46;;;;;;;14.38;10.77;;;;;;;20.43;76.79;101951.28;5060808;28;20189;-83
2023/09/30 08:01:13;;;;;;;17.13;10.93;;;;;;;19.73;77.74;101944.72;5061599;28;20077;-82
2023/09/30 08:03:39;;;;;;;13.32;10.00;;;;;;;19.51;79.10;101961.56;5060176;28;20116;-82
2023/09/30 08:06:08;;;;;;;13.15;11.10;;;;;;;19.68;79.58;101973.66;5060653;28;20045;-82
2023/09/30 08:08:37;;;;;;;13.48;10.38;;;;;;;20.19;78.44;101977.16;5062795;28;20052;-81
2023/09/30 08:11:05;;;;;;;13.32;10.77;;;;;;;19.26;80.41;101998.13;5056881;28;20049;-82
2023/09/30 08:13:32;;;;;;;15.30;10.52;;;;;;;18.97;81.20;102000.66;5059822;28;20056;-83
2023/09/30 08:15:59;;;;;;;15.73;11.52;;;;;;;19.09;81.07;101988.63;5060321;28;20053;-81
2023/09/30 08:18:26;;;;;;;13.80;10.23;;;;;;;19.97;80.21;101999.38;5058982;28;20108;-83
2023/09/30 08:20:53;;;;;;;15.48;10.68;;;;;;;19.85;78.08;101980.41;5060134;28;20404;-82
2023/09/30 08:23:21;;;;;;;12.88;10.77;;;;;;;18.83;80.65;102003.13;5059121;28;20116;-83
2023/09/30 08:25:48;;;;;;;15.90;11.35;;;;;;;19.84;80.43;102009.84;5058042;28;20053;-82
2023/09/30 08:28:16;;;;;;;13.00;10.50;;;;;;;19.97;79.44;102002.03;5054659;28;20076;-82
2023/09/30 08:30:43;;;;;;;15.20;10.30;;;;;;;19.92;78.88;101993.78;5060726;28;20045;-81
2023/09/30 08:33:13;;;;;;;12.88;10.40;;;;;;;19.82;78.93;101993.25;5059819;28;20063;-82
2023/09/30 08:35:42;;;;;;;12.75;9.63;;;;;;;19.69;79.82;101995.72;5057569;28;20060;-82
2023/09/30 08:38:12;;;;;;;11.27;9.68;;;;;;;20.13;78.94;101988.53;5056614;28;20044;-83
2023/09/30 08:40:57;;;;;;;13.05;9.45;;;;;;;20.35;78.20;101978.75;5055746;28;20049;-82
2023/09/30 08:43:30;;;;;;;12.73;10.35;;;;;;;20.10;77.48;101980.94;5059717;28;20151;-81
2023/09/30 08:45:58;;;;;;;13.75;9.77;;;;;;;20.57;77.69;101984.16;5055323;28;20041;-82
2023/09/30 08:48:28;;;;;;;12.27;9.60;;;;;;;20.49;77.62;101985.09;5059807;28;20057;-82
2023/09/30 08:50:59;;;;;;;13.73;9.23;;;;;;;20.61;76.91;101978.25;5059891;28;20135;-82
2023/09/30 08:53:31;;;;;;;15.27;9.85;;;;;;;20.03;78.04;101995.97;5059764;28;20064;-81
2023/09/30 08:56:10;;;;;;;13.27;9.20;;;;;;;20.46;77.50;101983.63;5058616;28;20051;-81
2023/09/30 08:58:43;;;;;;;16.58;8.88;;;;;;;19.90;77.74;101977.19;5056965;28;20061;-82
2023/09/30 09:17:00;;;;;;;16.92;10.23;;;;;;;18.60;82.21;101961.63;5047465;28;20042;-80
2023/09/30 09:27:24;;;;;;;13.05;8.70;;;;;;;18.94;79.88;101953.28;4993143;28;19932;-80
2023/09/30 09:45:13;;;;;;;11.65;7.35;;;;;;;18.54;79.06;101915.44;4870522;26;20048;-80
2023/09/30 09:51:33;;;;;;;12.63;8.75;;;;;;;19.17;78.66;101916.94;5077476;28;20053;-84
2023/09/30 09:54:29;;;;;;;14.38;8.02;;;;;;;19.44;79.19;101937.53;5091421;28;20063;-82
2023/09/30 10:28:40;;;;;;;12.32;7.45;;;;;;;18.84;77.78;101969.47;5076387;28;20057;-81
2023/09/30 10:31:13;;;;;;;10.27;7.22;;;;;;;18.83;78.04;101973.94;5077387;28;20511;-80
2023/09/30 10:34:16;;;;;;;10.73;7.25;;;;;;;18.79;78.44;101967.34;5076131;28;20430;-80
2023/09/30 10:36:44;;;;;;;9.60;6.70;;;;;;;18.71;78.12;101966.56;5050531;28;20132;-80
2023/09/30 10:39:14;;;;;;;11.32;7.47;;;;;;;18.63;79.15;101978.06;5055837;28;20081;-80
2023/09/30 10:41:50;;;;;;;12.10;7.07;;;;;;;18.61;79.20;101979.22;5060884;28;20045;-82
2023/09/30 10:44:38;;;;;;;11.07;6.97;;;;;;;18.67;78.37;101978.53;5058206;28;20055;-83
2023/09/30 10:47:38;;;;;;;10.93;6.60;;;;;;;18.84;76.61;101951.72;5057783;28;20049;-82
2023/09/30 10:50:40;;;;;;;11.88;6.32;;;;;;;19.01;75.98;101954.22;4986711;28;20046;-81
2023/09/30 10:53:07;;;;;;;7.68;5.18;;;;;;;19.01;73.78;101941.78;4975759;28;20092;-80
2023/09/30 10:55:34;;;;;;;13.82;5.80;;;;;;;18.87;74.34;101951.38;5032494;28;20051;-80
2023/09/30 10:58:01;;;;;;;10.75;6.50;;;;;;;18.70;75.31;101967.56;5057184;28;20208;-80
2023/09/30 11:00:54;;;;;;;10.90;5.95;;;;;;;18.78;74.95;101970.16;5059102;28;20076;-79
2023/09/30 11:03:21;;;;;;;10.75;6.68;;;;;;;18.82;75.97;101982.91;5057452;28;20053;-79
2023/09/30 11:05:50;;;;;;;11.27;6.38;;;;;;;19.06;75.38;101967.78;5056463;28;20083;-80
2023/09/30 11:08:18;;;;;;;9.52;5.75;;;;;;;19.18;74.96;101951.25;5056193;28;20071;-78
2023/09/30 11:10:48;;;;;;;9.35;5.53;;;;;;;19.32;74.32;101936.34;5054964;28;20455;-79
2023/09/30 11:13:15;;;;;;;12.85;5.93;;;;;;;19.56;73.63;101943.25;5055355;28;20056;-78
2023/09/30 11:15:42;;;;;;;11.82;5.97;;;;;;;19.74;73.12;101929.59;5059019;28;20049;-78
2023/09/30 11:18:18;;;;;;;11.68;6.03;;;;;;;20.02;72.30;101922.59;5055327;28;20136;-80
2023/09/30 11:20:45;;;;;;;13.75;6.05;;;;;;;20.00;71.37;101913.97;5054343;28;20084;-78
2023/09/30 11:23:14;;;;;;;11.35;5.43;;;;;;;20.25;71.90;101916.31;5056038;28;20426;-79
2023/09/30 11:25:41;;;;;;;14.30;5.70;;;;;;;20.54;71.89;101922.34;5059067;28;20166;-79
2023/09/30 11:28:15;;;;;;;12.63;5.72;;;;;;;20.47;70.66;101904.69;5055273;28;20079;-79
2023/09/30 11:30:55;;;;;;;12.32;5.60;;;;;;;20.63;69.83;101903.59;5057397;28;20049;-79
2023/09/30 11:33:23;;;;;;;10.82;5.45;;;;;;;20.46;69.38;101898.53;5057983;28;20057;-79
2023/09/30 11:35:58;;;;;;;11.20;5.60;;;;;;;20.61;69.61;101909.13;5058075;28;20055;-80
2023/09/30 11:38:25;;;;;;;12.05;5.30;;;;;;;20.36;69.19;101891.84;5057906;28;20053;-79
2023/09/30 11:41:03;;;;;;;9.93;4.70;;;;;;;20.69;67.68;101894.88;5059632;28;20132;-78
2023/09/30 11:43:31;;;;;;;9.93;5.50;;;;;;;20.68;65.81;101891.38;5059180;28;20060;-80
2023/09/30 11:46:08;;;;;;;10.50;5.32;;;;;;;20.59;66.32;101899.69;5059055;28;20105;-81
2023/09/30 11:48:37;;;;;;;11.52;5.25;;;;;;;20.23;67.20;101905.03;5057162;28;20056;-81
2023/09/30 11:51:04;;;;;;;9.55;5.20;;;;;;;20.11;67.69;101896.72;5060528;28;20116;-78
2023/09/30 11:53:31;;;;;;;11.57;5.20;;;;;;;19.69;68.48;101900.13;5039768;28;20125;-79
2023/09/30 11:55:59;;;;;;;10.23;5.30;;;;;;;19.74;68.81;101900.38;5048592;28;20049;-79
2023/09/30 11:58:27;;;;;;;7.53;5.00;;;;;;;19.88;69.01;101899.53;5060220;28;20084;-81
2023/09/30 12:00:59;;;;;;;10.88;5.05;;;;;;;20.07;68.74;101893.63;5059889;28;20165;-81
2023/09/30 12:03:27;;;;;;;10.38;5.80;;;;;;;20.11;70.13;101902.88;5060442;28;20060;-79
2023/09/30 12:05:56;;;;;;;10.10;5.78;;;;;;;20.15;69.38;101893.50;5060502;28;20059;-80
2023/09/30 12:08:25;;;;;;;8.57;6.00;;;;;;;19.74;69.81;101892.44;5059446;28;20108;-79
2023/09/30 12:10:51;;;;;;;10.95;5.30;;;;;;;19.48;70.04;101887.56;5058454;28;20132;-79
2023/09/30 12:13:18;;;;;;;11.35;6.00;;;;;;;19.53;69.46;101875.41;5057120;28;20396;-78
2023/09/30 12:15:52;;;;;;;11.88;5.93;;;;;;;19.85;70.18;101878.63;5077288;22;20055;-80
2023/09/30 12:24:09;;;;;;;13.23;5.78;;;;;;;19.65;70.23;101845.72;4993472;28;20121;-79
2023/09/30 12:27:17;;;;;;;12.32;5.45;;;;;;;19.72;70.57;101847.47;4965962;28;20078;-79
2023/09/30 13:01:03;;;;;;;12.23;5.30;;;;;;;20.11;68.50;101847.06;5119494;22;20260;-88
2023/09/30 13:03:29;;;;;;;8.15;4.70;;;;;;;20.03;66.79;101823.28;5134215;27;20036;-89
2023/09/30 13:05:59;;;;;;;9.52;4.63;;;;;;;19.90;67.05;101823.13;5122343;28;20052;-88
2023/09/30 13:08:25;;;;;;;10.50;4.63;;;;;;;19.87;67.05;101820.84;5101445;28;20043;-89
2023/09/30 13:10:52;;;;;;;8.02;4.15;;;;;;;19.93;66.94;101822.75;5116799;28;20091;-89
2023/09/30 13:13:19;;;;;;;8.63;4.60;;;;;;;20.11;66.92;101833.78;5105207;28;20044;-88
2023/09/30 13:15:45;;;;;;;8.57;4.80;;;;;;;20.00;64.72;101802.38;5105533;28;20032;-88
2023/09/30 13:18:14;;;;;;;8.57;4.50;;;;;;;20.04;64.71;101813.47;5088266;28;20044;-87
2023/09/30 13:20:40;;;;;;;8.35;4.57;;;;;;;20.00;65.15;101815.66;5090842;28;20117;-88
2023/09/30 13:23:07;;;;;;;8.40;4.68;;;;;;;19.65;64.38;101806.72;5093950;28;20041;-87
2023/09/30 13:25:34;;;;;;;9.40;4.57;;;;;;;19.65;64.91;101812.03;5087184;28;20049;-87
2023/09/30 13:28:00;;;;;;;8.10;4.63;;;;;;;19.70;64.67;101801.69;5079662;28;20080;-88
2023/09/30 13:30:27;;;;;;;9.82;4.93;;;;;;;19.92;64.61;101807.81;5087776;28;20052;-87
2023/09/30 13:32:54;;;;;;;8.85;4.75;;;;;;;20.06;64.38;101812.25;5083505;28;20040;-87
2023/09/30 13:35:22;;;;;;;9.25;4.55;;;;;;;20.34;64.42;101806.97;5083740;28;20048;-87
2023/09/30 13:37:48;;;;;;;7.40;4.20;;;;;;;20.32;63.48;101795.72;5065679;28;20059;-87
2023/09/30 13:40:15;;;;;;;11.20;4.20;;;;;;;20.18;63.95;101793.97;5073264;28;20075;-87
2023/09/30 13:42:44;;;;;;;9.20;4.80;;;;;;;19.93;64.22;101793.53;5095404;28;20054;-87
2023/09/30 13:45:12;;;;;;;11.15;4.88;;;;;;;20.11;64.01;101787.78;5086293;28;20052;-87
2023/09/30 13:47:38;;;;;;;6.63;4.35;;;;;;;19.81;64.54;101782.59;5071141;28;20060;-89
2023/09/30 13:50:07;;;;;;;8.80;4.20;;;;;;;20.13;64.55;101791.06;5084399;28;20093;-88
2023/09/30 13:52:36;;;;;;;8.35;4.40;;;;;;;20.09;65.17;101780.00;5090326;28;20044;-87
2023/09/30 13:55:04;;;;;;;10.43;5.25;;;;;;;20.26;63.47;101766.44;5106713;28;20055;-88
2023/09/30 13:57:31;;;;;;;10.68;4.32;;;;;;;20.33;63.26;101764.63;5101132;28;20702;-87
2023/09/30 13:59:58;;;;;;;8.23;4.25;;;;;;;20.44;64.86;101777.44;5090459;28;20049;-87
2023/09/30 14:02:25;;;;;;;10.18;4.70;;;;;;;20.17;63.68;101761.28;5101636;28;20067;-87
2023/09/30 14:04:53;;;;;;;8.18;4.38;;;;;;;20.23;63.72;101758.84;5096680;28;20048;-87
2023/09/30 14:07:20;;;;;;;10.13;4.15;;;;;;;20.17;64.48;101761.28;5078810;28;20045;-87
2023/09/30 14:09:48;;;;;;;6.55;4.13;;;;;;;20.10;65.54;101768.34;5065465;28;20049;-90
2023/09/30 14:12:15;;;;;;;9.50;4.75;;;;;;;20.24;66.03;101777.28;5082303;28;20111;-88
2023/09/30 14:14:41;;;;;;;9.20;4.30;;;;;;;20.39;66.57;101774.53;5081948;28;20052;-88
2023/09/30 14:17:10;;;;;;;7.22;4.43;;;;;;;20.27;65.83;101760.94;5084507;28;20076;-88
2023/09/30 14:19:38;;;;;;;9.07;4.35;;;;;;;20.27;64.19;101744.19;5085613;28;20036;-88
2023/09/30 14:22:05;;;;;;;8.52;4.10;;;;;;;20.13;64.88;101752.03;5072275;28;20044;-88
2023/09/30 14:24:33;;;;;;;7.32;4.40;;;;;;;20.05;65.63;101759.31;5084802;28;20131;-89
2023/09/30 14:27:01;;;;;;;8.38;4.18;;;;;;;20.14;65.85;101756.34;5083373;28;20487;-89
2023/09/30 14:29:28;;;;;;;8.32;4.70;;;;;;;19.83;65.34;101748.72;5076076;28;20143;-89
2023/09/30 14:31:54;;;;;;;11.05;4.82;;;;;;;19.62;65.64;101750.53;5078411;28;20063;-89